sensor_id;sensor_type;location;lat;lon;timestamp;temperature;humidity
16929;DHT22;8581;47.334;11.190;2022-08-19T00:01:52;13.80;99.90
16929;DHT22;8581;47.334;11.190;2022-08-19T00:04:24;13.80;99.90
16929;DHT22;8581;47.334;11.190;2022-08-19T00:06:55;13.80;99.90
16929;DHT22;8581;47.334;11.190;2022-08-19T00:09:27;13.80;99.90
16929;DHT22;8581;47.334;11.190;2022-08-19T00:11:58;13.90;99.90
16929;DHT22;8581;47.334;11.190;2022-08-19T00:14:29;13.90;99.90
16929;DHT22;8581;47.334;11.190;2022-08-19T00:17:01;13.80;99.90
16929;DHT22;8581;47.334;11.190;2022-08-19T00:19:33;13.80;99.90
16929;DHT22;8581;47.334;11.190;2022-08-19T00:22:04;13.80;99.90
16929;DHT22;8581;47.334;11.190;2022-08-19T00:24:36;13.80;99.90
16929;DHT22;8581;47.334;11.190;2022-08-19T00:27:08;13.70;99.90
16929;DHT22;8581;47.334;11.190;2022-08-19T00:29:39;13.50;99.90
16929;DHT22;8581;47.334;11.190;2022-08-19T00:32:11;13.60;99.90
16929;DHT22;8581;47.334;11.190;2022-08-19T00:34:43;13.70;99.90
16929;DHT22;8581;47.334;11.190;2022-08-19T00:37:14;13.60;99.90
16929;DHT22;8581;47.334;11.190;2022-08-19T00:39:46;13.70;99.90
16929;DHT22;8581;47.334;11.190;2022-08-19T00:42:18;13.80;99.90
16929;DHT22;8581;47.334;11.190;2022-08-19T00:44:49;13.80;99.90
16929;DHT22;8581;47.334;11.190;2022-08-19T00:47:21;13.80;99.90
16929;DHT22;8581;47.334;11.190;2022-08-19T00:49:54;13.80;99.90
16929;DHT22;8581;47.334;11.190;2022-08-19T00:52:28;13.90;99.90
16929;DHT22;8581;47.334;11.190;2022-08-19T00:54:58;14.00;99.90
16929;DHT22;8581;47.334;11.190;2022-08-19T00:57:32;14.00;99.90
16929;DHT22;8581;47.334;11.190;2022-08-19T01:00:05;14.00;99.90
16929;DHT22;8581;47.334;11.190;2022-08-19T01:02:34;14.10;99.90
16929;DHT22;8581;47.334;11.190;2022-08-19T01:05:07;14.20;99.90
16929;DHT22;8581;47.334;11.190;2022-08-19T01:07:38;14.00;99.90
16929;DHT22;8581;47.334;11.190;2022-08-19T01:10:12;14.10;99.90
16929;DHT22;8581;47.334;11.190;2022-08-19T01:12:41;14.20;99.90
16929;DHT22;8581;47.334;11.190;2022-08-19T01:15:14;14.30;99.90
16929;DHT22;8581;47.334;11.190;2022-08-19T01:17:45;14.30;99.90
16929;DHT22;8581;47.334;11.190;2022-08-19T01:20:18;14.40;99.90
16929;DHT22;8581;47.334;11.190;2022-08-19T01:22:49;14.50;99.90
16929;DHT22;8581;47.334;11.190;2022-08-19T01:25:22;14.70;99.90
16929;DHT22;8581;47.334;11.190;2022-08-19T01:27:52;14.70;99.90
16929;DHT22;8581;47.334;11.190;2022-08-19T01:30:24;14.70;99.90
16929;DHT22;8581;47.334;11.190;2022-08-19T01:32:55;14.70;99.90
16929;DHT22;8581;47.334;11.190;2022-08-19T01:35:29;14.80;99.90
16929;DHT22;8581;47.334;11.190;2022-08-19T01:38:00;14.80;99.90
16929;DHT22;8581;47.334;11.190;2022-08-19T01:40:32;14.90;99.90
16929;DHT22;8581;47.334;11.190;2022-08-19T01:43:02;14.90;99.90
16929;DHT22;8581;47.334;11.190;2022-08-19T01:45:34;14.90;99.90
16929;DHT22;8581;47.334;11.190;2022-08-19T01:48:05;14.90;99.90
16929;DHT22;8581;47.334;11.190;2022-08-19T01:50:37;14.80;99.90
16929;DHT22;8581;47.334;11.190;2022-08-19T01:53:09;14.60;99.90
16929;DHT22;8581;47.334;11.190;2022-08-19T01:55:41;14.60;99.90
16929;DHT22;8581;47.334;11.190;2022-08-19T01:58:15;14.80;99.90
16929;DHT22;8581;47.334;11.190;2022-08-19T02:00:44;14.80;99.90
16929;DHT22;8581;47.334;11.190;2022-08-19T02:03:16;14.60;99.90
16929;DHT22;8581;47.334;11.190;2022-08-19T02:05:47;14.70;99.90
16929;DHT22;8581;47.334;11.190;2022-08-19T02:08:19;14.80;99.90
16929;DHT22;8581;47.334;11.190;2022-08-19T02:10:50;14.80;99.90
16929;DHT22;8581;47.334;11.190;2022-08-19T02:13:22;14.90;99.90
16929;DHT22;8581;47.334;11.190;2022-08-19T02:15:54;15.00;99.90
16929;DHT22;8581;47.334;11.190;2022-08-19T02:18:25;15.00;99.90
16929;DHT22;8581;47.334;11.190;2022-08-19T02:20:57;14.90;99.90
16929;DHT22;8581;47.334;11.190;2022-08-19T02:23:28;14.80;99.90
16929;DHT22;8581;47.334;11.190;2022-08-19T02:26:00;14.80;99.90
16929;DHT22;8581;47.334;11.190;2022-08-19T02:28:32;14.80;99.90
16929;DHT22;8581;47.334;11.190;2022-08-19T02:31:07;15.00;99.90
16929;DHT22;8581;47.334;11.190;2022-08-19T02:33:35;15.00;99.90
16929;DHT22;8581;47.334;11.190;2022-08-19T02:36:08;15.00;99.90
16929;DHT22;8581;47.334;11.190;2022-08-19T02:38:40;14.90;99.90
16929;DHT22;8581;47.334;11.190;2022-08-19T02:41:13;15.00;99.90
16929;DHT22;8581;47.334;11.190;2022-08-19T02:43:43;14.90;99.90
16929;DHT22;8581;47.334;11.190;2022-08-19T02:46:17;14.90;99.90
16929;DHT22;8581;47.334;11.190;2022-08-19T02:48:49;14.90;99.90
16929;DHT22;8581;47.334;11.190;2022-08-19T02:51:21;15.00;99.90
16929;DHT22;8581;47.334;11.190;2022-08-19T02:53:51;15.10;99.90
16929;DHT22;8581;47.334;11.190;2022-08-19T02:56:23;15.00;99.90
16929;DHT22;8581;47.334;11.190;2022-08-19T02:58:55;14.80;99.90
16929;DHT22;8581;47.334;11.190;2022-08-19T03:01:31;14.70;99.90
16929;DHT22;8581;47.334;11.190;2022-08-19T03:04:02;14.70;99.90
16929;DHT22;8581;47.334;11.190;2022-08-19T03:06:31;14.80;99.90
16929;DHT22;8581;47.334;11.190;2022-08-19T03:09:03;14.80;99.90
16929;DHT22;8581;47.334;11.190;2022-08-19T03:11:34;14.70;99.90
16929;DHT22;8581;47.334;11.190;2022-08-19T03:14:07;14.70;99.90
16929;DHT22;8581;47.334;11.190;2022-08-19T03:16:43;14.70;99.90
16929;DHT22;8581;47.334;11.190;2022-08-19T03:19:13;14.70;99.90
16929;DHT22;8581;47.334;11.190;2022-08-19T03:21:45;14.80;99.90
16929;DHT22;8581;47.334;11.190;2022-08-19T03:24:16;14.80;99.90
16929;DHT22;8581;47.334;11.190;2022-08-19T03:26:48;14.60;99.90
16929;DHT22;8581;47.334;11.190;2022-08-19T03:29:19;14.80;99.90
16929;DHT22;8581;47.334;11.190;2022-08-19T03:31:51;14.90;99.90
16929;DHT22;8581;47.334;11.190;2022-08-19T03:34:25;15.00;99.90
16929;DHT22;8581;47.334;11.190;2022-08-19T03:36:55;15.10;99.90
16929;DHT22;8581;47.334;11.190;2022-08-19T03:39:27;15.30;99.90
16929;DHT22;8581;47.334;11.190;2022-08-19T03:41:58;15.20;99.90
16929;DHT22;8581;47.334;11.190;2022-08-19T03:44:30;15.10;99.90
16929;DHT22;8581;47.334;11.190;2022-08-19T03:47:01;15.20;99.90
16929;DHT22;8581;47.334;11.190;2022-08-19T03:49:33;15.30;99.90
16929;DHT22;8581;47.334;11.190;2022-08-19T03:52:05;15.20;99.90
16929;DHT22;8581;47.334;11.190;2022-08-19T03:54:37;15.40;99.90
16929;DHT22;8581;47.334;11.190;2022-08-19T03:57:08;15.40;99.90
16929;DHT22;8581;47.334;11.190;2022-08-19T03:59:40;15.40;99.90
16929;DHT22;8581;47.334;11.190;2022-08-19T04:02:11;15.60;99.90
16929;DHT22;8581;47.334;11.190;2022-08-19T04:04:43;15.80;99.90
16929;DHT22;8581;47.334;11.190;2022-08-19T04:07:14;15.70;99.90
16929;DHT22;8581;47.334;11.190;2022-08-19T04:09:47;15.80;99.90
16929;DHT22;8581;47.334;11.190;2022-08-19T04:12:18;15.60;99.90
16929;DHT22;8581;47.334;11.190;2022-08-19T04:14:50;15.70;99.90
16929;DHT22;8581;47.334;11.190;2022-08-19T04:17:21;15.80;99.90
16929;DHT22;8581;47.334;11.190;2022-08-19T04:19:53;15.80;99.90
16929;DHT22;8581;47.334;11.190;2022-08-19T04:22:25;15.70;99.90
16929;DHT22;8581;47.334;11.190;2022-08-19T04:24:56;15.70;99.90
16929;DHT22;8581;47.334;11.190;2022-08-19T04:27:28;15.70;99.90
16929;DHT22;8581;47.334;11.190;2022-08-19T04:30:00;15.80;99.90
16929;DHT22;8581;47.334;11.190;2022-08-19T04:32:31;15.70;99.90
16929;DHT22;8581;47.334;11.190;2022-08-19T04:35:03;15.80;99.90
16929;DHT22;8581;47.334;11.190;2022-08-19T04:37:35;15.80;99.90
16929;DHT22;8581;47.334;11.190;2022-08-19T04:40:08;15.80;99.90
16929;DHT22;8581;47.334;11.190;2022-08-19T04:42:45;15.70;99.90
16929;DHT22;8581;47.334;11.190;2022-08-19T04:45:17;15.70;99.90
16929;DHT22;8581;47.334;11.190;2022-08-19T04:47:48;15.80;99.90
16929;DHT22;8581;47.334;11.190;2022-08-19T04:50:20;15.80;99.90
16929;DHT22;8581;47.334;11.190;2022-08-19T04:52:52;15.60;99.90
16929;DHT22;8581;47.334;11.190;2022-08-19T04:55:23;15.60;99.90
16929;DHT22;8581;47.334;11.190;2022-08-19T04:57:55;15.70;99.90
16929;DHT22;8581;47.334;11.190;2022-08-19T05:00:26;15.80;99.90
16929;DHT22;8581;47.334;11.190;2022-08-19T05:02:58;15.80;99.90
16929;DHT22;8581;47.334;11.190;2022-08-19T05:05:30;15.90;99.90
16929;DHT22;8581;47.334;11.190;2022-08-19T05:08:01;15.90;99.90
16929;DHT22;8581;47.334;11.190;2022-08-19T05:10:35;16.00;99.90
16929;DHT22;8581;47.334;11.190;2022-08-19T05:13:06;16.00;99.90
16929;DHT22;8581;47.334;11.190;2022-08-19T05:15:38;16.20;99.90
16929;DHT22;8581;47.334;11.190;2022-08-19T05:18:10;16.30;99.90
16929;DHT22;8581;47.334;11.190;2022-08-19T05:20:47;16.30;99.90
16929;DHT22;8581;47.334;11.190;2022-08-19T05:23:24;16.20;99.90
16929;DHT22;8581;47.334;11.190;2022-08-19T05:25:56;16.10;99.90
16929;DHT22;8581;47.334;11.190;2022-08-19T05:28:27;16.00;99.90
16929;DHT22;8581;47.334;11.190;2022-08-19T05:30:59;16.00;99.90
16929;DHT22;8581;47.334;11.190;2022-08-19T05:33:31;16.10;99.90
16929;DHT22;8581;47.334;11.190;2022-08-19T05:36:03;16.20;99.90
16929;DHT22;8581;47.334;11.190;2022-08-19T05:38:35;16.30;99.90
16929;DHT22;8581;47.334;11.190;2022-08-19T05:41:09;16.30;99.90
16929;DHT22;8581;47.334;11.190;2022-08-19T05:43:40;16.40;99.90
16929;DHT22;8581;47.334;11.190;2022-08-19T05:46:18;16.30;99.90
16929;DHT22;8581;47.334;11.190;2022-08-19T05:48:49;16.20;99.90
16929;DHT22;8581;47.334;11.190;2022-08-19T05:51:20;16.00;99.90
16929;DHT22;8581;47.334;11.190;2022-08-19T05:53:52;16.00;99.90
16929;DHT22;8581;47.334;11.190;2022-08-19T05:56:23;16.10;99.90
16929;DHT22;8581;47.334;11.190;2022-08-19T05:58:56;16.20;99.90
16929;DHT22;8581;47.334;11.190;2022-08-19T06:01:27;16.30;99.90
16929;DHT22;8581;47.334;11.190;2022-08-19T06:03:58;16.40;99.90
16929;DHT22;8581;47.334;11.190;2022-08-19T06:06:30;16.40;99.90
16929;DHT22;8581;47.334;11.190;2022-08-19T06:09:03;16.60;99.90
16929;DHT22;8581;47.334;11.190;2022-08-19T06:11:40;16.40;99.90
16929;DHT22;8581;47.334;11.190;2022-08-19T06:14:12;16.10;99.90
16929;DHT22;8581;47.334;11.190;2022-08-19T06:16:42;16.00;99.90
16929;DHT22;8581;47.334;11.190;2022-08-19T06:19:15;16.20;99.90
16929;DHT22;8581;47.334;11.190;2022-08-19T06:21:46;16.50;99.90
16929;DHT22;8581;47.334;11.190;2022-08-19T06:24:22;16.70;99.90
16929;DHT22;8581;47.334;11.190;2022-08-19T06:26:55;16.90;99.90
16929;DHT22;8581;47.334;11.190;2022-08-19T06:29:28;16.90;99.90
16929;DHT22;8581;47.334;11.190;2022-08-19T06:32:01;16.70;99.90
16929;DHT22;8581;47.334;11.190;2022-08-19T06:34:32;17.00;99.90
16929;DHT22;8581;47.334;11.190;2022-08-19T06:37:03;17.20;99.90
16929;DHT22;8581;47.334;11.190;2022-08-19T06:39:37;17.00;99.90
16929;DHT22;8581;47.334;11.190;2022-08-19T06:42:09;17.00;99.90
16929;DHT22;8581;47.334;11.190;2022-08-19T06:44:46;17.00;99.90
16929;DHT22;8581;47.334;11.190;2022-08-19T06:47:18;16.90;99.90
16929;DHT22;8581;47.334;11.190;2022-08-19T06:49:49;16.70;99.90
16929;DHT22;8581;47.334;11.190;2022-08-19T06:52:20;16.80;99.90
16929;DHT22;8581;47.334;11.190;2022-08-19T06:54:52;16.80;99.90
16929;DHT22;8581;47.334;11.190;2022-08-19T06:57:24;16.70;99.90
16929;DHT22;8581;47.334;11.190;2022-08-19T06:59:55;16.70;99.90
16929;DHT22;8581;47.334;11.190;2022-08-19T07:02:27;16.70;99.90
16929;DHT22;8581;47.334;11.190;2022-08-19T07:04:58;16.70;99.90
16929;DHT22;8581;47.334;11.190;2022-08-19T07:07:30;16.70;99.90
16929;DHT22;8581;47.334;11.190;2022-08-19T07:10:02;16.80;99.90
16929;DHT22;8581;47.334;11.190;2022-08-19T07:12:33;16.90;99.90
16929;DHT22;8581;47.334;11.190;2022-08-19T07:15:05;16.90;99.90
16929;DHT22;8581;47.334;11.190;2022-08-19T07:17:37;16.90;99.90
16929;DHT22;8581;47.334;11.190;2022-08-19T07:20:10;16.90;99.90
16929;DHT22;8581;47.334;11.190;2022-08-19T07:22:42;16.80;99.90
16929;DHT22;8581;47.334;11.190;2022-08-19T07:25:15;16.80;99.90
16929;DHT22;8581;47.334;11.190;2022-08-19T07:27:49;16.80;99.90
16929;DHT22;8581;47.334;11.190;2022-08-19T07:30:20;16.90;99.90
16929;DHT22;8581;47.334;11.190;2022-08-19T07:32:51;16.90;99.90
16929;DHT22;8581;47.334;11.190;2022-08-19T07:35:23;16.90;99.90
16929;DHT22;8581;47.334;11.190;2022-08-19T07:37:55;17.00;99.90
16929;DHT22;8581;47.334;11.190;2022-08-19T07:40:26;16.90;99.90
16929;DHT22;8581;47.334;11.190;2022-08-19T07:42:58;17.00;99.90
16929;DHT22;8581;47.334;11.190;2022-08-19T07:45:30;17.00;99.90
16929;DHT22;8581;47.334;11.190;2022-08-19T07:48:01;17.30;99.90
16929;DHT22;8581;47.334;11.190;2022-08-19T07:50:33;17.50;99.90
16929;DHT22;8581;47.334;11.190;2022-08-19T07:53:05;17.30;99.90
16929;DHT22;8581;47.334;11.190;2022-08-19T07:55:36;17.30;99.90
16929;DHT22;8581;47.334;11.190;2022-08-19T07:58:08;17.60;99.90
16929;DHT22;8581;47.334;11.190;2022-08-19T08:00:40;17.60;99.90
16929;DHT22;8581;47.334;11.190;2022-08-19T08:03:12;17.70;99.90
16929;DHT22;8581;47.334;11.190;2022-08-19T08:05:45;17.40;99.90
16929;DHT22;8581;47.334;11.190;2022-08-19T08:08:22;17.40;99.90
16929;DHT22;8581;47.334;11.190;2022-08-19T08:10:59;17.60;99.90
16929;DHT22;8581;47.334;11.190;2022-08-19T08:13:31;17.40;99.90
16929;DHT22;8581;47.334;11.190;2022-08-19T08:16:03;17.70;99.90
16929;DHT22;8581;47.334;11.190;2022-08-19T08:18:34;18.10;99.90
16929;DHT22;8581;47.334;11.190;2022-08-19T08:21:06;18.50;99.90
16929;DHT22;8581;47.334;11.190;2022-08-19T08:23:37;18.80;99.90
16929;DHT22;8581;47.334;11.190;2022-08-19T08:26:09;19.00;99.90
16929;DHT22;8581;47.334;11.190;2022-08-19T08:28:41;19.30;99.90
16929;DHT22;8581;47.334;11.190;2022-08-19T08:31:13;19.10;99.90
16929;DHT22;8581;47.334;11.190;2022-08-19T08:33:45;19.10;99.90
16929;DHT22;8581;47.334;11.190;2022-08-19T08:36:16;19.00;99.90
16929;DHT22;8581;47.334;11.190;2022-08-19T08:38:47;19.00;99.90
16929;DHT22;8581;47.334;11.190;2022-08-19T08:41:23;19.00;99.90
16929;DHT22;8581;47.334;11.190;2022-08-19T08:43:53;19.30;99.90
16929;DHT22;8581;47.334;11.190;2022-08-19T08:46:26;19.60;99.90
16929;DHT22;8581;47.334;11.190;2022-08-19T08:49:01;19.40;99.90
16929;DHT22;8581;47.334;11.190;2022-08-19T08:51:42;19.50;99.90
16929;DHT22;8581;47.334;11.190;2022-08-19T08:54:13;19.80;99.90
16929;DHT22;8581;47.334;11.190;2022-08-19T08:56:44;19.70;99.90
16929;DHT22;8581;47.334;11.190;2022-08-19T08:59:21;19.60;99.90
16929;DHT22;8581;47.334;11.190;2022-08-19T09:01:50;20.10;99.90
16929;DHT22;8581;47.334;11.190;2022-08-19T09:04:22;19.90;99.90
16929;DHT22;8581;47.334;11.190;2022-08-19T09:07:20;20.30;99.90
16929;DHT22;8581;47.334;11.190;2022-08-19T09:09:49;20.00;99.90
16929;DHT22;8581;47.334;11.190;2022-08-19T09:13:36;20.60;99.90
16929;DHT22;8581;47.334;11.190;2022-08-19T09:15:15;20.80;99.90
16929;DHT22;8581;47.334;11.190;2022-08-19T09:17:46;21.10;99.90
16929;DHT22;8581;47.334;11.190;2022-08-19T09:20:19;21.20;99.90
16929;DHT22;8581;47.334;11.190;2022-08-19T09:22:49;21.50;99.90
16929;DHT22;8581;47.334;11.190;2022-08-19T09:25:22;21.40;99.90
16929;DHT22;8581;47.334;11.190;2022-08-19T09:27:53;20.80;99.90
16929;DHT22;8581;47.334;11.190;2022-08-19T09:30:25;20.70;99.90
16929;DHT22;8581;47.334;11.190;2022-08-19T09:32:56;20.80;99.90
16929;DHT22;8581;47.334;11.190;2022-08-19T09:35:28;21.10;99.90
16929;DHT22;8581;47.334;11.190;2022-08-19T09:37:59;20.80;99.90
16929;DHT22;8581;47.334;11.190;2022-08-19T09:40:31;20.70;99.90
16929;DHT22;8581;47.334;11.190;2022-08-19T09:43:02;20.90;99.90
16929;DHT22;8581;47.334;11.190;2022-08-19T09:45:34;21.00;99.90
16929;DHT22;8581;47.334;11.190;2022-08-19T09:48:05;21.00;99.90
16929;DHT22;8581;47.334;11.190;2022-08-19T09:50:37;21.00;99.90
16929;DHT22;8581;47.334;11.190;2022-08-19T09:53:09;21.00;99.90
16929;DHT22;8581;47.334;11.190;2022-08-19T09:55:42;21.40;99.90
16929;DHT22;8581;47.334;11.190;2022-08-19T09:58:13;21.40;99.90
16929;DHT22;8581;47.334;11.190;2022-08-19T10:00:45;21.60;99.90
16929;DHT22;8581;47.334;11.190;2022-08-19T10:03:17;21.90;99.90
16929;DHT22;8581;47.334;11.190;2022-08-19T10:05:48;21.80;99.90
16929;DHT22;8581;47.334;11.190;2022-08-19T10:08:21;22.40;99.90
16929;DHT22;8581;47.334;11.190;2022-08-19T10:10:52;22.80;99.90
16929;DHT22;8581;47.334;11.190;2022-08-19T10:13:24;22.00;99.90
16929;DHT22;8581;47.334;11.190;2022-08-19T10:15:56;21.90;99.90
16929;DHT22;8581;47.334;11.190;2022-08-19T10:18:26;22.30;99.90
16929;DHT22;8581;47.334;11.190;2022-08-19T10:21:04;23.40;99.90
16929;DHT22;8581;47.334;11.190;2022-08-19T10:23:34;24.50;99.90
16929;DHT22;8581;47.334;11.190;2022-08-19T10:26:06;25.60;99.90
16929;DHT22;8581;47.334;11.190;2022-08-19T10:28:37;26.30;99.90
16929;DHT22;8581;47.334;11.190;2022-08-19T10:31:13;26.30;99.90
16929;DHT22;8581;47.334;11.190;2022-08-19T10:33:43;26.40;99.90
16929;DHT22;8581;47.334;11.190;2022-08-19T10:36:17;26.30;99.90
16929;DHT22;8581;47.334;11.190;2022-08-19T10:38:48;25.30;99.90
16929;DHT22;8581;47.334;11.190;2022-08-19T10:41:19;25.40;99.90
16929;DHT22;8581;47.334;11.190;2022-08-19T10:43:51;25.80;99.90
16929;DHT22;8581;47.334;11.190;2022-08-19T10:46:23;25.60;99.90
16929;DHT22;8581;47.334;11.190;2022-08-19T10:48:53;26.20;99.90
16929;DHT22;8581;47.334;11.190;2022-08-19T10:51:25;25.30;99.90
16929;DHT22;8581;47.334;11.190;2022-08-19T10:54:02;24.00;99.90
16929;DHT22;8581;47.334;11.190;2022-08-19T10:56:34;22.90;99.90
16929;DHT22;8581;47.334;11.190;2022-08-19T10:59:11;21.60;99.90
16929;DHT22;8581;47.334;11.190;2022-08-19T11:01:43;21.10;99.90
16929;DHT22;8581;47.334;11.190;2022-08-19T11:04:14;20.60;99.90
16929;DHT22;8581;47.334;11.190;2022-08-19T11:06:46;20.40;99.90
16929;DHT22;8581;47.334;11.190;2022-08-19T11:09:20;21.20;99.90
16929;DHT22;8581;47.334;11.190;2022-08-19T11:11:49;22.60;99.90
16929;DHT22;8581;47.334;11.190;2022-08-19T11:14:21;24.20;99.90
16929;DHT22;8581;47.334;11.190;2022-08-19T11:16:52;24.80;99.90
16929;DHT22;8581;47.334;11.190;2022-08-19T11:19:24;24.60;99.90
16929;DHT22;8581;47.334;11.190;2022-08-19T11:21:56;25.70;99.90
16929;DHT22;8581;47.334;11.190;2022-08-19T11:24:28;27.60;99.90
16929;DHT22;8581;47.334;11.190;2022-08-19T11:27:02;28.80;99.90
16929;DHT22;8581;47.334;11.190;2022-08-19T11:29:32;28.40;99.90
16929;DHT22;8581;47.334;11.190;2022-08-19T11:32:05;27.90;99.90
16929;DHT22;8581;47.334;11.190;2022-08-19T11:34:36;27.90;99.90
16929;DHT22;8581;47.334;11.190;2022-08-19T11:37:08;27.70;99.90
16929;DHT22;8581;47.334;11.190;2022-08-19T11:39:39;27.10;99.90
16929;DHT22;8581;47.334;11.190;2022-08-19T11:42:11;27.30;99.90
16929;DHT22;8581;47.334;11.190;2022-08-19T11:44:48;28.30;99.90
16929;DHT22;8581;47.334;11.190;2022-08-19T11:47:20;29.20;99.90
16929;DHT22;8581;47.334;11.190;2022-08-19T11:49:51;28.40;99.90
16929;DHT22;8581;47.334;11.190;2022-08-19T11:52:23;27.80;99.90
16929;DHT22;8581;47.334;11.190;2022-08-19T11:54:54;28.10;99.90
16929;DHT22;8581;47.334;11.190;2022-08-19T11:57:26;28.10;99.90
16929;DHT22;8581;47.334;11.190;2022-08-19T11:59:58;27.90;99.90
16929;DHT22;8581;47.334;11.190;2022-08-19T12:02:29;29.40;99.90
16929;DHT22;8581;47.334;11.190;2022-08-19T12:05:01;30.50;99.90
16929;DHT22;8581;47.334;11.190;2022-08-19T12:07:33;31.70;99.30
16929;DHT22;8581;47.334;11.190;2022-08-19T12:10:05;31.90;98.30
16929;DHT22;8581;47.334;11.190;2022-08-19T12:12:37;31.10;98.10
16929;DHT22;8581;47.334;11.190;2022-08-19T12:15:09;32.00;96.60
16929;DHT22;8581;47.334;11.190;2022-08-19T12:17:41;31.80;95.50
16929;DHT22;8581;47.334;11.190;2022-08-19T12:20:13;30.40;95.20
16929;DHT22;8581;47.334;11.190;2022-08-19T12:22:44;28.90;98.50
16929;DHT22;8581;47.334;11.190;2022-08-19T12:25:16;28.40;99.50
16929;DHT22;8581;47.334;11.190;2022-08-19T12:27:47;28.00;99.90
16929;DHT22;8581;47.334;11.190;2022-08-19T12:30:19;28.40;99.90
16929;DHT22;8581;47.334;11.190;2022-08-19T12:32:51;29.60;99.90
16929;DHT22;8581;47.334;11.190;2022-08-19T12:35:22;30.50;99.90
16929;DHT22;8581;47.334;11.190;2022-08-19T12:37:54;31.90;98.50
16929;DHT22;8581;47.334;11.190;2022-08-19T12:40:25;31.70;96.20
16929;DHT22;8581;47.334;11.190;2022-08-19T12:42:57;29.40;97.00
16929;DHT22;8581;47.334;11.190;2022-08-19T12:45:29;28.20;99.20
16929;DHT22;8581;47.334;11.190;2022-08-19T12:48:00;27.80;97.70
16929;DHT22;8581;47.334;11.190;2022-08-19T12:50:32;26.60;99.80
16929;DHT22;8581;47.334;11.190;2022-08-19T12:53:04;27.20;99.90
16929;DHT22;8581;47.334;11.190;2022-08-19T12:55:35;27.90;99.90
16929;DHT22;8581;47.334;11.190;2022-08-19T12:58:07;28.30;99.90
16929;DHT22;8581;47.334;11.190;2022-08-19T13:00:39;28.00;99.40
16929;DHT22;8581;47.334;11.190;2022-08-19T13:03:10;28.40;99.40
16929;DHT22;8581;47.334;11.190;2022-08-19T13:05:42;27.90;99.40
16929;DHT22;8581;47.334;11.190;2022-08-19T13:08:13;27.50;99.80
16929;DHT22;8581;47.334;11.190;2022-08-19T13:10:45;26.50;99.90
16929;DHT22;8581;47.334;11.190;2022-08-19T13:13:17;25.50;99.90
16929;DHT22;8581;47.334;11.190;2022-08-19T13:15:48;25.10;99.90
16929;DHT22;8581;47.334;11.190;2022-08-19T13:18:20;24.50;99.90
16929;DHT22;8581;47.334;11.190;2022-08-19T13:20:51;24.20;99.90
16929;DHT22;8581;47.334;11.190;2022-08-19T13:23:23;23.90;99.90
16929;DHT22;8581;47.334;11.190;2022-08-19T13:25:57;23.60;99.90
16929;DHT22;8581;47.334;11.190;2022-08-19T13:28:27;23.40;99.90
16929;DHT22;8581;47.334;11.190;2022-08-19T13:30:59;22.30;99.90
16929;DHT22;8581;47.334;11.190;2022-08-19T13:33:36;22.40;99.90
16929;DHT22;8581;47.334;11.190;2022-08-19T13:36:08;22.40;99.90
16929;DHT22;8581;47.334;11.190;2022-08-19T13:38:39;22.30;99.90
16929;DHT22;8581;47.334;11.190;2022-08-19T13:41:11;22.40;99.90
16929;DHT22;8581;47.334;11.190;2022-08-19T13:43:43;21.40;99.90
16929;DHT22;8581;47.334;11.190;2022-08-19T13:46:14;21.60;99.90
16929;DHT22;8581;47.334;11.190;2022-08-19T13:48:46;21.50;99.90
16929;DHT22;8581;47.334;11.190;2022-08-19T13:51:18;21.40;99.90
16929;DHT22;8581;47.334;11.190;2022-08-19T13:53:49;20.90;99.90
16929;DHT22;8581;47.334;11.190;2022-08-19T13:56:21;20.70;99.90
16929;DHT22;8581;47.334;11.190;2022-08-19T13:58:52;21.10;99.90
16929;DHT22;8581;47.334;11.190;2022-08-19T14:01:24;21.30;99.90
16929;DHT22;8581;47.334;11.190;2022-08-19T14:03:56;21.60;99.90
16929;DHT22;8581;47.334;11.190;2022-08-19T14:06:27;21.30;99.90
16929;DHT22;8581;47.334;11.190;2022-08-19T14:08:59;21.00;99.90
16929;DHT22;8581;47.334;11.190;2022-08-19T14:11:30;20.60;99.90
16929;DHT22;8581;47.334;11.190;2022-08-19T14:14:02;20.80;99.90
16929;DHT22;8581;47.334;11.190;2022-08-19T14:16:34;21.20;99.90
16929;DHT22;8581;47.334;11.190;2022-08-19T14:19:05;21.30;99.90
16929;DHT22;8581;47.334;11.190;2022-08-19T14:21:37;21.60;99.90
16929;DHT22;8581;47.334;11.190;2022-08-19T14:24:08;21.80;99.90
16929;DHT22;8581;47.334;11.190;2022-08-19T14:26:40;21.60;99.90
16929;DHT22;8581;47.334;11.190;2022-08-19T14:29:12;21.40;99.90
16929;DHT22;8581;47.334;11.190;2022-08-19T14:31:43;21.50;99.90
16929;DHT22;8581;47.334;11.190;2022-08-19T14:34:15;21.50;99.90
16929;DHT22;8581;47.334;11.190;2022-08-19T14:36:46;21.80;99.90
16929;DHT22;8581;47.334;11.190;2022-08-19T14:39:18;21.90;99.90
16929;DHT22;8581;47.334;11.190;2022-08-19T14:41:50;22.10;99.90
16929;DHT22;8581;47.334;11.190;2022-08-19T14:44:21;22.50;99.90
16929;DHT22;8581;47.334;11.190;2022-08-19T14:46:53;22.60;99.90
16929;DHT22;8581;47.334;11.190;2022-08-19T14:49:24;22.90;99.90
16929;DHT22;8581;47.334;11.190;2022-08-19T14:51:56;22.90;99.90
16929;DHT22;8581;47.334;11.190;2022-08-19T14:54:28;23.40;99.90
16929;DHT22;8581;47.334;11.190;2022-08-19T14:56:59;23.50;99.90
16929;DHT22;8581;47.334;11.190;2022-08-19T14:59:31;23.70;99.90
16929;DHT22;8581;47.334;11.190;2022-08-19T15:02:03;23.70;99.90
16929;DHT22;8581;47.334;11.190;2022-08-19T15:04:34;23.30;99.90
16929;DHT22;8581;47.334;11.190;2022-08-19T15:07:06;23.10;99.90
16929;DHT22;8581;47.334;11.190;2022-08-19T15:09:37;21.80;99.90
16929;DHT22;8581;47.334;11.190;2022-08-19T15:12:09;22.10;99.90
16929;DHT22;8581;47.334;11.190;2022-08-19T15:14:41;22.40;99.90
16929;DHT22;8581;47.334;11.190;2022-08-19T15:17:12;22.30;99.90
16929;DHT22;8581;47.334;11.190;2022-08-19T15:19:44;22.70;99.90
16929;DHT22;8581;47.334;11.190;2022-08-19T15:22:16;22.50;99.90
16929;DHT22;8581;47.334;11.190;2022-08-19T15:24:47;22.90;99.90
16929;DHT22;8581;47.334;11.190;2022-08-19T15:27:19;22.70;99.90
16929;DHT22;8581;47.334;11.190;2022-08-19T15:29:50;22.50;99.90
16929;DHT22;8581;47.334;11.190;2022-08-19T15:32:22;22.00;99.90
16929;DHT22;8581;47.334;11.190;2022-08-19T15:34:54;21.60;99.90
16929;DHT22;8581;47.334;11.190;2022-08-19T15:37:25;21.10;99.90
16929;DHT22;8581;47.334;11.190;2022-08-19T15:39:57;20.70;99.90
16929;DHT22;8581;47.334;11.190;2022-08-19T15:42:28;20.10;99.90
16929;DHT22;8581;47.334;11.190;2022-08-19T15:45:00;20.00;99.90
16929;DHT22;8581;47.334;11.190;2022-08-19T15:47:32;19.70;99.90
16929;DHT22;8581;47.334;11.190;2022-08-19T15:50:09;19.90;99.90
16929;DHT22;8581;47.334;11.190;2022-08-19T15:52:52;20.10;99.90
16929;DHT22;8581;47.334;11.190;2022-08-19T15:55:24;19.90;99.90
16929;DHT22;8581;47.334;11.190;2022-08-19T15:57:54;20.10;99.90
16929;DHT22;8581;47.334;11.190;2022-08-19T16:00:31;19.80;99.90